EIKN/NOC METAR and TAF weather

Enter ICAO airport designator
Station Type Date Time Source
EIKN METAR 2020/02/21 15:30 UTC NOAA

EIKN 211530Z 22019G29KT 190V250 5000 -RA BKN003 OVC008 09/09 Q1004 TEMPO 2000


Station Type Date Time Source
EIKN Decoded METAR 2020/02/21 15:30 UTC NOAA

Connaught, Ireland (EIKN) 53-54-37N 008-49-05W
Feb 21, 2020 - 10:30 AM EST / 2020.02.21 1530 UTC
Wind: from the SW (220 degrees) at 22 MPH (19 KT) gusting to 33 MPH (29 KT) (direction variable):0
Visibility: 3 mile(s):0
Sky conditions: overcast
Weather: light rain
Temperature: 48 F (9 C)
Dew Point: 48 F (9 C)
Relative Humidity: 100%
Pressure (altimeter): 29.65 in. Hg (1004 hPa)
ob: EIKN 211530Z 22019G29KT 190V250 5000 -RA BKN003 OVC008 09/09 Q1004 TEMPO 2000
cycle: 15

Station Type Date Time Source
EIKN TAF 2020/02/21 12:12 UTC NOAA

TAF EIKN 211100Z 2112/2212 22023G37KT 4000 -RA SCT004 BKN007
TEMPO 2112/2115 2000 RADZ BKN003
BECMG 2115/2117 2000 RADZ BKN003 PROB40
TEMPO 2116/2120 0500 RADZ FG BKN001
BECMG 2121/2123 24023G40KT 9999 NSW BKN020
BECMG 2201/2203 26018G30KT
TEMPO 2201/2212 4000 SHRA BKN008 BKN018CB

Example: see airport list